sensor_id;sensor_type;location;lat;lon;timestamp;P1;durP1;ratioP1;P2;durP2;ratioP2
10260;SDS011;5175;42.606;23.388;2023-10-09T00:01:01;13.95;;;3.47;;
10260;SDS011;5175;42.606;23.388;2023-10-09T00:03:30;6.07;;;3.03;;
10260;SDS011;5175;42.606;23.388;2023-10-09T00:05:56;6.78;;;2.80;;
10260;SDS011;5175;42.606;23.388;2023-10-09T00:08:25;10.38;;;2.95;;
10260;SDS011;5175;42.606;23.388;2023-10-09T00:10:56;8.63;;;2.85;;
10260;SDS011;5175;42.606;23.388;2023-10-09T00:13:38;7.32;;;2.78;;
10260;SDS011;5175;42.606;23.388;2023-10-09T00:16:14;9.63;;;3.10;;
10260;SDS011;5175;42.606;23.388;2023-10-09T00:18:42;8.52;;;3.00;;
10260;SDS011;5175;42.606;23.388;2023-10-09T00:21:13;5.70;;;2.65;;
10260;SDS011;5175;42.606;23.388;2023-10-09T00:23:42;10.13;;;2.70;;
10260;SDS011;5175;42.606;23.388;2023-10-09T00:26:09;9.10;;;2.60;;
10260;SDS011;5175;42.606;23.388;2023-10-09T00:28:37;8.35;;;2.67;;
10260;SDS011;5175;42.606;23.388;2023-10-09T00:31:09;7.00;;;2.17;;
10260;SDS011;5175;42.606;23.388;2023-10-09T00:33:40;6.93;;;2.30;;
10260;SDS011;5175;42.606;23.388;2023-10-09T00:36:07;6.32;;;2.67;;
10260;SDS011;5175;42.606;23.388;2023-10-09T00:38:35;5.40;;;2.20;;
10260;SDS011;5175;42.606;23.388;2023-10-09T00:41:05;7.10;;;2.92;;
10260;SDS011;5175;42.606;23.388;2023-10-09T00:43:45;8.65;;;2.53;;
10260;SDS011;5175;42.606;23.388;2023-10-09T00:46:15;9.63;;;2.65;;
10260;SDS011;5175;42.606;23.388;2023-10-09T00:48:52;6.50;;;2.58;;
10260;SDS011;5175;42.606;23.388;2023-10-09T00:51:20;8.02;;;2.83;;
10260;SDS011;5175;42.606;23.388;2023-10-09T00:53:53;6.03;;;2.55;;
10260;SDS011;5175;42.606;23.388;2023-10-09T00:56:24;7.45;;;2.50;;
10260;SDS011;5175;42.606;23.388;2023-10-09T00:59:04;9.15;;;2.80;;
10260;SDS011;5175;42.606;23.388;2023-10-09T01:01:34;5.72;;;2.30;;
10260;SDS011;5175;42.606;23.388;2023-10-09T01:04:02;5.97;;;2.40;;
10260;SDS011;5175;42.606;23.388;2023-10-09T01:06:40;8.35;;;2.47;;
10260;SDS011;5175;42.606;23.388;2023-10-09T01:09:12;9.43;;;2.57;;
10260;SDS011;5175;42.606;23.388;2023-10-09T01:11:43;4.65;;;1.92;;
10260;SDS011;5175;42.606;23.388;2023-10-09T01:14:28;4.00;;;1.90;;
10260;SDS011;5175;42.606;23.388;2023-10-09T01:17:01;6.03;;;2.10;;
10260;SDS011;5175;42.606;23.388;2023-10-09T01:19:31;7.67;;;2.40;;
10260;SDS011;5175;42.606;23.388;2023-10-09T01:21:59;4.80;;;2.37;;
10260;SDS011;5175;42.606;23.388;2023-10-09T01:24:31;3.57;;;2.00;;
10260;SDS011;5175;42.606;23.388;2023-10-09T01:27:00;6.17;;;2.10;;
10260;SDS011;5175;42.606;23.388;2023-10-09T01:29:30;7.60;;;2.47;;
10260;SDS011;5175;42.606;23.388;2023-10-09T01:31:57;7.50;;;2.13;;
10260;SDS011;5175;42.606;23.388;2023-10-09T01:34:28;3.70;;;2.20;;
10260;SDS011;5175;42.606;23.388;2023-10-09T01:37:07;6.23;;;2.10;;
10260;SDS011;5175;42.606;23.388;2023-10-09T01:39:39;2.88;;;2.10;;
10260;SDS011;5175;42.606;23.388;2023-10-09T01:42:07;4.50;;;2.13;;
10260;SDS011;5175;42.606;23.388;2023-10-09T01:44:35;6.10;;;1.87;;
10260;SDS011;5175;42.606;23.388;2023-10-09T01:47:08;4.13;;;2.10;;
10260;SDS011;5175;42.606;23.388;2023-10-09T01:49:39;7.53;;;2.23;;
10260;SDS011;5175;42.606;23.388;2023-10-09T01:52:08;4.97;;;2.10;;
10260;SDS011;5175;42.606;23.388;2023-10-09T01:54:36;6.50;;;2.30;;
10260;SDS011;5175;42.606;23.388;2023-10-09T01:57:05;3.40;;;1.93;;
10260;SDS011;5175;42.606;23.388;2023-10-09T01:59:36;4.87;;;2.00;;
10260;SDS011;5175;42.606;23.388;2023-10-09T02:02:08;4.97;;;2.23;;
10260;SDS011;5175;42.606;23.388;2023-10-09T02:04:49;3.73;;;2.03;;
10260;SDS011;5175;42.606;23.388;2023-10-09T02:07:16;6.37;;;2.40;;
10260;SDS011;5175;42.606;23.388;2023-10-09T02:09:52;4.23;;;2.33;;
10260;SDS011;5175;42.606;23.388;2023-10-09T02:12:21;4.87;;;2.27;;
10260;SDS011;5175;42.606;23.388;2023-10-09T02:14:49;6.50;;;2.13;;
10260;SDS011;5175;42.606;23.388;2023-10-09T02:17:19;7.33;;;2.67;;
10260;SDS011;5175;42.606;23.388;2023-10-09T02:19:50;5.63;;;2.20;;
10260;SDS011;5175;42.606;23.388;2023-10-09T02:22:17;5.50;;;2.10;;
10260;SDS011;5175;42.606;23.388;2023-10-09T02:24:44;5.33;;;2.10;;
10260;SDS011;5175;42.606;23.388;2023-10-09T02:27:24;9.73;;;2.50;;
10260;SDS011;5175;42.606;23.388;2023-10-09T02:30:11;4.23;;;2.20;;
10260;SDS011;5175;42.606;23.388;2023-10-09T02:32:44;5.97;;;2.37;;
10260;SDS011;5175;42.606;23.388;2023-10-09T02:35:14;6.30;;;2.23;;
10260;SDS011;5175;42.606;23.388;2023-10-09T02:37:56;4.37;;;2.27;;
10260;SDS011;5175;42.606;23.388;2023-10-09T02:40:26;7.37;;;2.60;;
10260;SDS011;5175;42.606;23.388;2023-10-09T02:42:59;6.83;;;2.10;;
10260;SDS011;5175;42.606;23.388;2023-10-09T02:45:26;5.83;;;2.13;;
10260;SDS011;5175;42.606;23.388;2023-10-09T02:48:00;6.23;;;2.20;;
10260;SDS011;5175;42.606;23.388;2023-10-09T02:50:35;7.13;;;2.00;;
10260;SDS011;5175;42.606;23.388;2023-10-09T02:53:03;4.27;;;2.20;;
10260;SDS011;5175;42.606;23.388;2023-10-09T02:55:34;5.07;;;2.03;;
10260;SDS011;5175;42.606;23.388;2023-10-09T02:58:05;6.20;;;2.03;;
10260;SDS011;5175;42.606;23.388;2023-10-09T03:00:35;3.47;;;1.97;;
10260;SDS011;5175;42.606;23.388;2023-10-09T03:03:03;3.87;;;1.60;;
10260;SDS011;5175;42.606;23.388;2023-10-09T03:05:32;5.83;;;1.80;;
10260;SDS011;5175;42.606;23.388;2023-10-09T03:07:59;5.37;;;1.90;;
10260;SDS011;5175;42.606;23.388;2023-10-09T03:10:27;2.73;;;1.90;;
10260;SDS011;5175;42.606;23.388;2023-10-09T03:12:54;3.70;;;1.90;;
10260;SDS011;5175;42.606;23.388;2023-10-09T03:15:22;4.70;;;1.80;;
10260;SDS011;5175;42.606;23.388;2023-10-09T03:17:49;3.23;;;1.50;;
10260;SDS011;5175;42.606;23.388;2023-10-09T03:20:15;3.53;;;1.67;;
10260;SDS011;5175;42.606;23.388;2023-10-09T03:22:44;3.30;;;1.60;;
10260;SDS011;5175;42.606;23.388;2023-10-09T03:25:12;2.40;;;1.53;;
10260;SDS011;5175;42.606;23.388;2023-10-09T03:27:42;1.87;;;1.57;;
10260;SDS011;5175;42.606;23.388;2023-10-09T03:30:12;2.93;;;1.50;;
10260;SDS011;5175;42.606;23.388;2023-10-09T03:32:46;3.20;;;1.50;;
10260;SDS011;5175;42.606;23.388;2023-10-09T03:35:16;2.53;;;1.40;;
10260;SDS011;5175;42.606;23.388;2023-10-09T03:37:49;3.67;;;1.50;;
10260;SDS011;5175;42.606;23.388;2023-10-09T03:40:17;5.20;;;1.70;;
10260;SDS011;5175;42.606;23.388;2023-10-09T03:42:45;2.70;;;1.63;;
10260;SDS011;5175;42.606;23.388;2023-10-09T03:45:12;3.03;;;1.67;;
10260;SDS011;5175;42.606;23.388;2023-10-09T03:47:51;1.70;;;1.57;;
10260;SDS011;5175;42.606;23.388;2023-10-09T03:50:22;3.47;;;1.90;;
10260;SDS011;5175;42.606;23.388;2023-10-09T03:53:01;5.53;;;1.60;;
10260;SDS011;5175;42.606;23.388;2023-10-09T03:55:29;3.03;;;1.80;;
10260;SDS011;5175;42.606;23.388;2023-10-09T03:57:57;1.67;;;1.57;;
10260;SDS011;5175;42.606;23.388;2023-10-09T04:00:27;5.40;;;1.67;;
10260;SDS011;5175;42.606;23.388;2023-10-09T04:02:56;2.83;;;1.40;;
10260;SDS011;5175;42.606;23.388;2023-10-09T04:05:23;4.80;;;1.77;;
10260;SDS011;5175;42.606;23.388;2023-10-09T04:07:51;1.50;;;1.40;;
10260;SDS011;5175;42.606;23.388;2023-10-09T04:10:19;2.87;;;1.70;;
10260;SDS011;5175;42.606;23.388;2023-10-09T04:13:10;2.70;;;1.40;;
10260;SDS011;5175;42.606;23.388;2023-10-09T04:15:42;4.70;;;1.53;;
10260;SDS011;5175;42.606;23.388;2023-10-09T04:18:10;2.63;;;1.43;;
10260;SDS011;5175;42.606;23.388;2023-10-09T04:20:42;3.27;;;1.60;;
10260;SDS011;5175;42.606;23.388;2023-10-09T04:23:31;2.50;;;1.50;;
10260;SDS011;5175;42.606;23.388;2023-10-09T04:26:14;3.27;;;1.67;;
10260;SDS011;5175;42.606;23.388;2023-10-09T04:28:41;5.47;;;1.50;;
10260;SDS011;5175;42.606;23.388;2023-10-09T04:31:08;3.40;;;1.43;;
10260;SDS011;5175;42.606;23.388;2023-10-09T04:33:41;2.93;;;1.40;;
10260;SDS011;5175;42.606;23.388;2023-10-09T04:36:19;1.93;;;1.40;;
10260;SDS011;5175;42.606;23.388;2023-10-09T04:38:53;2.07;;;1.47;;
10260;SDS011;5175;42.606;23.388;2023-10-09T04:41:41;2.57;;;1.50;;
10260;SDS011;5175;42.606;23.388;2023-10-09T04:44:24;3.73;;;1.80;;
10260;SDS011;5175;42.606;23.388;2023-10-09T04:47:01;2.83;;;1.50;;
10260;SDS011;5175;42.606;23.388;2023-10-09T04:49:52;4.97;;;1.70;;
10260;SDS011;5175;42.606;23.388;2023-10-09T04:52:27;3.33;;;1.47;;
10260;SDS011;5175;42.606;23.388;2023-10-09T04:55:08;2.60;;;1.60;;
10260;SDS011;5175;42.606;23.388;2023-10-09T04:57:44;1.87;;;1.40;;
10260;SDS011;5175;42.606;23.388;2023-10-09T05:00:26;2.23;;;1.30;;
10260;SDS011;5175;42.606;23.388;2023-10-09T05:03:12;5.67;;;1.57;;
10260;SDS011;5175;42.606;23.388;2023-10-09T05:05:54;5.37;;;1.43;;
10260;SDS011;5175;42.606;23.388;2023-10-09T05:08:45;2.03;;;1.43;;
10260;SDS011;5175;42.606;23.388;2023-10-09T05:11:12;1.67;;;1.47;;
10260;SDS011;5175;42.606;23.388;2023-10-09T05:13:59;2.20;;;1.73;;
10260;SDS011;5175;42.606;23.388;2023-10-09T05:16:40;2.40;;;1.33;;
10260;SDS011;5175;42.606;23.388;2023-10-09T05:19:19;10.50;;;1.70;;
10260;SDS011;5175;42.606;23.388;2023-10-09T05:22:00;3.43;;;1.57;;
10260;SDS011;5175;42.606;23.388;2023-10-09T05:24:32;1.50;;;1.10;;
10260;SDS011;5175;42.606;23.388;2023-10-09T05:27:09;2.80;;;1.00;;
10260;SDS011;5175;42.606;23.388;2023-10-09T05:29:43;2.20;;;1.27;;
10260;SDS011;5175;42.606;23.388;2023-10-09T05:32:24;3.30;;;1.40;;
10260;SDS011;5175;42.606;23.388;2023-10-09T05:35:00;2.20;;;1.10;;
10260;SDS011;5175;42.606;23.388;2023-10-09T05:37:41;9.80;;;1.63;;
10260;SDS011;5175;42.606;23.388;2023-10-09T05:40:13;1.80;;;1.20;;
10260;SDS011;5175;42.606;23.388;2023-10-09T05:42:51;1.97;;;1.10;;
10260;SDS011;5175;42.606;23.388;2023-10-09T05:45:24;2.17;;;1.40;;
10260;SDS011;5175;42.606;23.388;2023-10-09T05:48:09;7.93;;;1.50;;
10260;SDS011;5175;42.606;23.388;2023-10-09T05:50:50;2.20;;;1.10;;
10260;SDS011;5175;42.606;23.388;2023-10-09T05:53:32;3.10;;;1.50;;
10260;SDS011;5175;42.606;23.388;2023-10-09T05:56:21;2.30;;;1.30;;
10260;SDS011;5175;42.606;23.388;2023-10-09T05:59:06;3.87;;;1.53;;
10260;SDS011;5175;42.606;23.388;2023-10-09T06:01:50;3.67;;;1.57;;
10260;SDS011;5175;42.606;23.388;2023-10-09T06:04:34;2.77;;;1.30;;
10260;SDS011;5175;42.606;23.388;2023-10-09T06:07:14;2.97;;;1.70;;
10260;SDS011;5175;42.606;23.388;2023-10-09T06:09:49;3.57;;;1.40;;
10260;SDS011;5175;42.606;23.388;2023-10-09T06:12:17;3.10;;;1.60;;
10260;SDS011;5175;42.606;23.388;2023-10-09T06:14:58;4.20;;;1.30;;
10260;SDS011;5175;42.606;23.388;2023-10-09T06:17:44;2.90;;;1.20;;
10260;SDS011;5175;42.606;23.388;2023-10-09T06:20:15;4.03;;;1.43;;
10260;SDS011;5175;42.606;23.388;2023-10-09T06:23:00;6.23;;;1.73;;
10260;SDS011;5175;42.606;23.388;2023-10-09T06:25:42;1.80;;;1.40;;
10260;SDS011;5175;42.606;23.388;2023-10-09T06:28:16;3.37;;;1.37;;
10260;SDS011;5175;42.606;23.388;2023-10-09T06:30:57;6.47;;;1.83;;
10260;SDS011;5175;42.606;23.388;2023-10-09T06:33:43;2.57;;;1.90;;
10260;SDS011;5175;42.606;23.388;2023-10-09T06:36:32;1.97;;;1.50;;
10260;SDS011;5175;42.606;23.388;2023-10-09T06:38:58;2.07;;;1.43;;
10260;SDS011;5175;42.606;23.388;2023-10-09T06:41:56;5.00;;;1.33;;
10260;SDS011;5175;42.606;23.388;2023-10-09T06:44:34;1.70;;;1.37;;
10260;SDS011;5175;42.606;23.388;2023-10-09T06:47:15;2.40;;;1.60;;
10260;SDS011;5175;42.606;23.388;2023-10-09T06:49:43;3.93;;;1.43;;
10260;SDS011;5175;42.606;23.388;2023-10-09T06:52:29;2.50;;;1.53;;
10260;SDS011;5175;42.606;23.388;2023-10-09T06:55:22;2.17;;;1.60;;
10260;SDS011;5175;42.606;23.388;2023-10-09T06:58:00;2.07;;;1.40;;
10260;SDS011;5175;42.606;23.388;2023-10-09T07:00:37;1.50;;;1.27;;
10260;SDS011;5175;42.606;23.388;2023-10-09T07:03:36;2.90;;;1.37;;
10260;SDS011;5175;42.606;23.388;2023-10-09T07:06:17;2.23;;;1.40;;
10260;SDS011;5175;42.606;23.388;2023-10-09T07:08:49;1.70;;;1.57;;
10260;SDS011;5175;42.606;23.388;2023-10-09T07:11:38;1.73;;;1.53;;
10260;SDS011;5175;42.606;23.388;2023-10-09T07:14:21;5.50;;;4.87;;
10260;SDS011;5175;42.606;23.388;2023-10-09T07:17:18;3.13;;;1.80;;
10260;SDS011;5175;42.606;23.388;2023-10-09T07:19:47;2.13;;;1.33;;
10260;SDS011;5175;42.606;23.388;2023-10-09T07:22:35;2.33;;;1.70;;
10260;SDS011;5175;42.606;23.388;2023-10-09T07:25:17;2.00;;;1.60;;
10260;SDS011;5175;42.606;23.388;2023-10-09T07:28:06;2.20;;;1.50;;
10260;SDS011;5175;42.606;23.388;2023-10-09T07:30:45;1.43;;;1.33;;
10260;SDS011;5175;42.606;23.388;2023-10-09T07:33:12;4.30;;;1.23;;
10260;SDS011;5175;42.606;23.388;2023-10-09T07:35:55;2.10;;;1.40;;
10260;SDS011;5175;42.606;23.388;2023-10-09T07:38:23;1.53;;;1.33;;
10260;SDS011;5175;42.606;23.388;2023-10-09T07:40:55;2.40;;;1.73;;
10260;SDS011;5175;42.606;23.388;2023-10-09T07:43:25;5.03;;;1.50;;
10260;SDS011;5175;42.606;23.388;2023-10-09T07:46:03;1.63;;;1.40;;
10260;SDS011;5175;42.606;23.388;2023-10-09T07:48:49;2.37;;;1.27;;
10260;SDS011;5175;42.606;23.388;2023-10-09T07:51:17;2.80;;;1.40;;
10260;SDS011;5175;42.606;23.388;2023-10-09T07:53:48;3.57;;;1.53;;
10260;SDS011;5175;42.606;23.388;2023-10-09T07:56:22;1.97;;;1.50;;
10260;SDS011;5175;42.606;23.388;2023-10-09T07:58:49;3.23;;;1.87;;
10260;SDS011;5175;42.606;23.388;2023-10-09T08:01:18;1.57;;;1.20;;
10260;SDS011;5175;42.606;23.388;2023-10-09T08:04:00;2.17;;;1.30;;
10260;SDS011;5175;42.606;23.388;2023-10-09T08:06:30;3.17;;;1.40;;
10260;SDS011;5175;42.606;23.388;2023-10-09T08:09:08;1.73;;;1.20;;
10260;SDS011;5175;42.606;23.388;2023-10-09T08:11:53;2.80;;;1.57;;
10260;SDS011;5175;42.606;23.388;2023-10-09T08:14:37;2.50;;;1.40;;
10260;SDS011;5175;42.606;23.388;2023-10-09T08:17:12;4.10;;;1.47;;
10260;SDS011;5175;42.606;23.388;2023-10-09T08:19:41;2.33;;;1.30;;
10260;SDS011;5175;42.606;23.388;2023-10-09T08:22:26;1.70;;;1.40;;
10260;SDS011;5175;42.606;23.388;2023-10-09T08:25:17;2.97;;;1.50;;
10260;SDS011;5175;42.606;23.388;2023-10-09T08:27:55;1.50;;;1.20;;
10260;SDS011;5175;42.606;23.388;2023-10-09T08:30:23;3.13;;;1.47;;
10260;SDS011;5175;42.606;23.388;2023-10-09T08:33:16;2.63;;;1.70;;
10260;SDS011;5175;42.606;23.388;2023-10-09T08:36:11;2.50;;;1.30;;
10260;SDS011;5175;42.606;23.388;2023-10-09T08:38:46;4.83;;;1.70;;
10260;SDS011;5175;42.606;23.388;2023-10-09T08:41:13;4.07;;;1.97;;
10260;SDS011;5175;42.606;23.388;2023-10-09T08:43:46;2.35;;;1.67;;
10260;SDS011;5175;42.606;23.388;2023-10-09T08:46:16;1.77;;;1.40;;
10260;SDS011;5175;42.606;23.388;2023-10-09T08:48:46;1.90;;;1.37;;
10260;SDS011;5175;42.606;23.388;2023-10-09T08:51:14;3.08;;;1.40;;
10260;SDS011;5175;42.606;23.388;2023-10-09T08:53:43;1.40;;;1.30;;
10260;SDS011;5175;42.606;23.388;2023-10-09T08:56:11;5.22;;;1.55;;
10260;SDS011;5175;42.606;23.388;2023-10-09T08:58:41;2.40;;;2.17;;
10260;SDS011;5175;42.606;23.388;2023-10-09T09:01:07;2.83;;;2.20;;
10260;SDS011;5175;42.606;23.388;2023-10-09T09:03:40;2.17;;;1.30;;
10260;SDS011;5175;42.606;23.388;2023-10-09T09:06:10;2.10;;;1.80;;
10260;SDS011;5175;42.606;23.388;2023-10-09T09:08:39;3.78;;;1.58;;
10260;SDS011;5175;42.606;23.388;2023-10-09T09:11:10;1.42;;;1.30;;
10260;SDS011;5175;42.606;23.388;2023-10-09T09:13:41;3.13;;;1.40;;
10260;SDS011;5175;42.606;23.388;2023-10-09T09:16:14;4.25;;;1.42;;
10260;SDS011;5175;42.606;23.388;2023-10-09T09:18:51;3.80;;;1.30;;
10260;SDS011;5175;42.606;23.388;2023-10-09T09:21:27;4.63;;;1.67;;
10260;SDS011;5175;42.606;23.388;2023-10-09T09:23:55;4.60;;;1.65;;
10260;SDS011;5175;42.606;23.388;2023-10-09T09:26:34;2.08;;;1.45;;
10260;SDS011;5175;42.606;23.388;2023-10-09T09:29:10;1.88;;;1.55;;
10260;SDS011;5175;42.606;23.388;2023-10-09T09:31:37;1.58;;;1.48;;
10260;SDS011;5175;42.606;23.388;2023-10-09T09:34:07;3.67;;;1.40;;
10260;SDS011;5175;42.606;23.388;2023-10-09T09:36:54;3.25;;;1.50;;
10260;SDS011;5175;42.606;23.388;2023-10-09T09:39:22;1.70;;;1.48;;
10260;SDS011;5175;42.606;23.388;2023-10-09T09:41:56;2.33;;;1.52;;
10260;SDS011;5175;42.606;23.388;2023-10-09T09:44:30;1.50;;;1.27;;
10260;SDS011;5175;42.606;23.388;2023-10-09T09:46:59;2.22;;;1.50;;
10260;SDS011;5175;42.606;23.388;2023-10-09T09:49:27;2.70;;;1.40;;
10260;SDS011;5175;42.606;23.388;2023-10-09T09:51:58;2.72;;;1.52;;
10260;SDS011;5175;42.606;23.388;2023-10-09T09:54:28;4.72;;;1.63;;
10260;SDS011;5175;42.606;23.388;2023-10-09T09:56:59;3.78;;;1.50;;
10260;SDS011;5175;42.606;23.388;2023-10-09T09:59:33;3.22;;;1.33;;
10260;SDS011;5175;42.606;23.388;2023-10-09T10:02:06;3.85;;;1.27;;
10260;SDS011;5175;42.606;23.388;2023-10-09T10:04:38;2.25;;;1.40;;
10260;SDS011;5175;42.606;23.388;2023-10-09T10:07:08;1.67;;;1.25;;
10260;SDS011;5175;42.606;23.388;2023-10-09T10:09:38;1.70;;;1.30;;
10260;SDS011;5175;42.606;23.388;2023-10-09T10:12:06;5.13;;;1.38;;
10260;SDS011;5175;42.606;23.388;2023-10-09T10:14:51;5.15;;;1.30;;
10260;SDS011;5175;42.606;23.388;2023-10-09T10:17:19;4.40;;;1.52;;
10260;SDS011;5175;42.606;23.388;2023-10-09T10:20:03;2.47;;;1.58;;
10260;SDS011;5175;42.606;23.388;2023-10-09T10:22:52;1.85;;;1.50;;
10260;SDS011;5175;42.606;23.388;2023-10-09T10:25:42;2.03;;;1.40;;
10260;SDS011;5175;42.606;23.388;2023-10-09T10:28:17;1.92;;;1.27;;
10260;SDS011;5175;42.606;23.388;2023-10-09T10:31:04;3.03;;;1.50;;
10260;SDS011;5175;42.606;23.388;2023-10-09T10:36:32;3.45;;;1.60;;
10260;SDS011;5175;42.606;23.388;2023-10-09T10:39:01;3.78;;;1.52;;
10260;SDS011;5175;42.606;23.388;2023-10-09T10:41:33;2.63;;;1.35;;
10260;SDS011;5175;42.606;23.388;2023-10-09T10:44:01;1.55;;;1.45;;
10260;SDS011;5175;42.606;23.388;2023-10-09T10:46:49;2.22;;;1.13;;
10260;SDS011;5175;42.606;23.388;2023-10-09T10:49:18;2.55;;;1.55;;
10260;SDS011;5175;42.606;23.388;2023-10-09T10:51:47;2.30;;;1.40;;
10260;SDS011;5175;42.606;23.388;2023-10-09T10:54:23;4.90;;;1.67;;
10260;SDS011;5175;42.606;23.388;2023-10-09T10:57:15;2.78;;;1.38;;
10260;SDS011;5175;42.606;23.388;2023-10-09T10:59:53;2.53;;;1.60;;
10260;SDS011;5175;42.606;23.388;2023-10-09T11:02:37;3.30;;;1.70;;
10260;SDS011;5175;42.606;23.388;2023-10-09T11:05:06;2.42;;;1.55;;
10260;SDS011;5175;42.606;23.388;2023-10-09T11:07:48;2.33;;;1.60;;
10260;SDS011;5175;42.606;23.388;2023-10-09T11:10:22;2.05;;;1.52;;
10260;SDS011;5175;42.606;23.388;2023-10-09T11:12:57;3.55;;;1.70;;
10260;SDS011;5175;42.606;23.388;2023-10-09T11:15:52;3.35;;;1.52;;
10260;SDS011;5175;42.606;23.388;2023-10-09T11:18:39;3.67;;;1.90;;
10260;SDS011;5175;42.606;23.388;2023-10-09T11:21:12;2.20;;;1.40;;
10260;SDS011;5175;42.606;23.388;2023-10-09T11:23:56;2.55;;;1.63;;
10260;SDS011;5175;42.606;23.388;2023-10-09T11:26:48;4.35;;;1.58;;
10260;SDS011;5175;42.606;23.388;2023-10-09T11:29:20;2.80;;;1.30;;
10260;SDS011;5175;42.606;23.388;2023-10-09T11:32:15;4.93;;;1.50;;
10260;SDS011;5175;42.606;23.388;2023-10-09T11:34:47;4.18;;;1.80;;
10260;SDS011;5175;42.606;23.388;2023-10-09T11:37:18;4.32;;;1.73;;
10260;SDS011;5175;42.606;23.388;2023-10-09T11:40:03;4.00;;;1.70;;
10260;SDS011;5175;42.606;23.388;2023-10-09T11:42:49;2.60;;;1.85;;
10260;SDS011;5175;42.606;23.388;2023-10-09T11:45:22;2.15;;;1.40;;
10260;SDS011;5175;42.606;23.388;2023-10-09T11:47:53;3.95;;;1.58;;
10260;SDS011;5175;42.606;23.388;2023-10-09T11:53:16;2.63;;;1.60;;
10260;SDS011;5175;42.606;23.388;2023-10-09T11:55:58;3.25;;;1.80;;
10260;SDS011;5175;42.606;23.388;2023-10-09T11:58:27;2.80;;;1.70;;
10260;SDS011;5175;42.606;23.388;2023-10-09T12:00:54;2.50;;;1.60;;
10260;SDS011;5175;42.606;23.388;2023-10-09T12:03:24;2.17;;;1.75;;
10260;SDS011;5175;42.606;23.388;2023-10-09T12:05:58;2.60;;;2.10;;
10260;SDS011;5175;42.606;23.388;2023-10-09T12:08:29;3.35;;;2.05;;
10260;SDS011;5175;42.606;23.388;2023-10-09T12:10:57;3.85;;;2.20;;
10260;SDS011;5175;42.606;23.388;2023-10-09T12:13:23;3.65;;;2.20;;
10260;SDS011;5175;42.606;23.388;2023-10-09T12:15:52;2.90;;;2.00;;
10260;SDS011;5175;42.606;23.388;2023-10-09T12:18:19;3.47;;;2.35;;
10260;SDS011;5175;42.606;23.388;2023-10-09T12:20:47;6.90;;;2.42;;
10260;SDS011;5175;42.606;23.388;2023-10-09T12:23:17;7.82;;;2.60;;
10260;SDS011;5175;42.606;23.388;2023-10-09T12:25:44;2.88;;;2.40;;
10260;SDS011;5175;42.606;23.388;2023-10-09T12:28:12;2.70;;;2.25;;
10260;SDS011;5175;42.606;23.388;2023-10-09T12:30:39;3.13;;;2.22;;
10260;SDS011;5175;42.606;23.388;2023-10-09T12:33:08;6.65;;;2.47;;
10260;SDS011;5175;42.606;23.388;2023-10-09T12:35:37;3.78;;;2.70;;
10260;SDS011;5175;42.606;23.388;2023-10-09T12:38:05;3.08;;;2.00;;
10260;SDS011;5175;42.606;23.388;2023-10-09T12:40:34;4.25;;;2.20;;
10260;SDS011;5175;42.606;23.388;2023-10-09T12:43:01;3.55;;;2.13;;
10260;SDS011;5175;42.606;23.388;2023-10-09T12:45:28;3.20;;;2.50;;
10260;SDS011;5175;42.606;23.388;2023-10-09T12:47:57;4.15;;;2.40;;
10260;SDS011;5175;42.606;23.388;2023-10-09T12:50:29;2.53;;;2.00;;
10260;SDS011;5175;42.606;23.388;2023-10-09T12:52:58;3.30;;;2.28;;
10260;SDS011;5175;42.606;23.388;2023-10-09T12:55:34;5.30;;;2.40;;
10260;SDS011;5175;42.606;23.388;2023-10-09T12:58:05;3.28;;;2.05;;
10260;SDS011;5175;42.606;23.388;2023-10-09T13:00:34;5.57;;;2.03;;
10260;SDS011;5175;42.606;23.388;2023-10-09T13:03:05;4.47;;;2.30;;
10260;SDS011;5175;42.606;23.388;2023-10-09T13:05:43;2.35;;;1.80;;
10260;SDS011;5175;42.606;23.388;2023-10-09T13:08:17;3.83;;;1.50;;
10260;SDS011;5175;42.606;23.388;2023-10-09T13:10:46;2.58;;;1.98;;
10260;SDS011;5175;42.606;23.388;2023-10-09T13:13:20;4.75;;;1.40;;
10260;SDS011;5175;42.606;23.388;2023-10-09T13:15:47;3.78;;;1.30;;
10260;SDS011;5175;42.606;23.388;2023-10-09T13:18:14;2.90;;;1.35;;
10260;SDS011;5175;42.606;23.388;2023-10-09T13:20:41;4.07;;;1.40;;
10260;SDS011;5175;42.606;23.388;2023-10-09T13:23:09;4.63;;;1.30;;
10260;SDS011;5175;42.606;23.388;2023-10-09T13:25:39;5.45;;;1.45;;
10260;SDS011;5175;42.606;23.388;2023-10-09T13:28:06;3.90;;;1.50;;
10260;SDS011;5175;42.606;23.388;2023-10-09T13:30:37;3.88;;;1.20;;
10260;SDS011;5175;42.606;23.388;2023-10-09T13:33:14;3.28;;;1.33;;
10260;SDS011;5175;42.606;23.388;2023-10-09T13:35:42;2.03;;;1.60;;
10260;SDS011;5175;42.606;23.388;2023-10-09T13:38:17;3.70;;;1.40;;
10260;SDS011;5175;42.606;23.388;2023-10-09T13:40:43;1.95;;;1.30;;
10260;SDS011;5175;42.606;23.388;2023-10-09T13:43:10;5.07;;;1.60;;
10260;SDS011;5175;42.606;23.388;2023-10-09T13:45:41;2.88;;;1.52;;
10260;SDS011;5175;42.606;23.388;2023-10-09T13:48:14;2.60;;;1.48;;
10260;SDS011;5175;42.606;23.388;2023-10-09T13:50:42;2.42;;;1.20;;
10260;SDS011;5175;42.606;23.388;2023-10-09T13:53:09;2.25;;;1.60;;
10260;SDS011;5175;42.606;23.388;2023-10-09T13:55:39;2.33;;;1.52;;
10260;SDS011;5175;42.606;23.388;2023-10-09T13:58:08;3.22;;;1.60;;
10260;SDS011;5175;42.606;23.388;2023-10-09T14:00:38;2.92;;;1.70;;
10260;SDS011;5175;42.606;23.388;2023-10-09T14:03:07;3.97;;;1.58;;
10260;SDS011;5175;42.606;23.388;2023-10-09T14:05:38;3.55;;;1.55;;
10260;SDS011;5175;42.606;23.388;2023-10-09T14:08:18;2.40;;;1.35;;
10260;SDS011;5175;42.606;23.388;2023-10-09T14:10:48;3.97;;;1.80;;
10260;SDS011;5175;42.606;23.388;2023-10-09T14:13:15;4.88;;;1.45;;
10260;SDS011;5175;42.606;23.388;2023-10-09T14:15:43;1.98;;;1.70;;
10260;SDS011;5175;42.606;23.388;2023-10-09T14:18:11;4.47;;;1.77;;
10260;SDS011;5175;42.606;23.388;2023-10-09T14:20:38;2.10;;;1.60;;
10260;SDS011;5175;42.606;23.388;2023-10-09T14:23:06;3.35;;;1.90;;
10260;SDS011;5175;42.606;23.388;2023-10-09T14:25:35;3.45;;;1.63;;
10260;SDS011;5175;42.606;23.388;2023-10-09T14:28:06;2.45;;;1.70;;
10260;SDS011;5175;42.606;23.388;2023-10-09T14:30:34;2.58;;;1.55;;
10260;SDS011;5175;42.606;23.388;2023-10-09T14:33:07;3.72;;;1.90;;
10260;SDS011;5175;42.606;23.388;2023-10-09T14:35:38;3.60;;;1.63;;
10260;SDS011;5175;42.606;23.388;2023-10-09T14:38:05;2.45;;;1.70;;
10260;SDS011;5175;42.606;23.388;2023-10-09T14:40:36;3.22;;;1.80;;
10260;SDS011;5175;42.606;23.388;2023-10-09T14:43:08;3.50;;;1.90;;
10260;SDS011;5175;42.606;23.388;2023-10-09T14:45:44;4.07;;;1.90;;
10260;SDS011;5175;42.606;23.388;2023-10-09T14:48:13;7.47;;;2.30;;
10260;SDS011;5175;42.606;23.388;2023-10-09T14:50:46;2.83;;;1.95;;
10260;SDS011;5175;42.606;23.388;2023-10-09T14:53:13;3.65;;;2.00;;
10260;SDS011;5175;42.606;23.388;2023-10-09T14:55:40;6.40;;;2.20;;
10260;SDS011;5175;42.606;23.388;2023-10-09T14:58:11;5.78;;;2.28;;
10260;SDS011;5175;42.606;23.388;2023-10-09T15:00:38;4.72;;;2.22;;
10260;SDS011;5175;42.606;23.388;2023-10-09T15:03:11;9.48;;;2.78;;
10260;SDS011;5175;42.606;23.388;2023-10-09T15:05:40;8.50;;;2.60;;
10260;SDS011;5175;42.606;23.388;2023-10-09T15:08:08;7.25;;;2.90;;
10260;SDS011;5175;42.606;23.388;2023-10-09T15:10:43;11.43;;;3.08;;
10260;SDS011;5175;42.606;23.388;2023-10-09T15:13:12;8.45;;;3.03;;
10260;SDS011;5175;42.606;23.388;2023-10-09T15:15:41;7.45;;;2.97;;
10260;SDS011;5175;42.606;23.388;2023-10-09T15:18:08;11.25;;;3.20;;
10260;SDS011;5175;42.606;23.388;2023-10-09T15:20:37;11.30;;;3.55;;
10260;SDS011;5175;42.606;23.388;2023-10-09T15:23:04;15.50;;;4.30;;
10260;SDS011;5175;42.606;23.388;2023-10-09T15:25:32;23.17;;;4.05;;
10260;SDS011;5175;42.606;23.388;2023-10-09T15:27:59;9.93;;;3.45;;
10260;SDS011;5175;42.606;23.388;2023-10-09T15:30:27;4.50;;;2.67;;
10260;SDS011;5175;42.606;23.388;2023-10-09T15:32:54;7.93;;;2.92;;